Cinquanta 50 — 9HB5294 — position and weather

sailwx.info

Track history (hours):
 
Tides and Currents Weather Stations Pressure Air Temp Water Temp Dewpoint Dewpoint Depression Visibility Wind Speed Wind Dir Waves Ship Positions

Cinquanta 50

Last reported at 2017-Nov-07 17:30 UTC. Time now 2017-Nov-18 04:52 UTC.
Position N 39°28' E 002°32'.
Warning: this ship's position is 10 days out of date.

Length 36 m.

Type: Pleasure craft. MMSI: 249798000.

Date/timePositionNaut miles runAvg speedWind from/ knotsBaromVisibWave heightAir tempDewpointWater temp
2017-Nov-07 17:30N 39°28' E 002°32'1 1.1
2017-Nov-07 16:59N 39°28' E 002°31'0 0.0
2017-Nov-07 16:17N 39°28' E 002°31'0 0.0
2017-Nov-07 15:11N 39°28' E 002°31'0 0.0
2017-Nov-07 14:53N 39°28' E 002°31'0 0.0
2017-Nov-07 14:29N 39°28' E 002°31'0 0.0
2017-Nov-07 13:59N 39°28' E 002°31'1 1.4
2017-Nov-07 13:30N 39°29' E 002°32'3 7.1
2017-Nov-07 13:00N 39°31' E 002°36'3 6.2
2017-Nov-07 12:29N 39°33' E 002°38'1 1.0
2017-Nov-07 11:58N 39°34' E 002°38'0 0.0
2017-Nov-07 11:30N 39°34' E 002°38'0 0.4
2017-Nov-07 11:00N 39°34' E 002°38'0 0.0
2017-Nov-05 07:28N 39°34' E 002°38'0 0.0
2017-Nov-05 06:58N 39°34' E 002°38'0 0.0
2017-Nov-05 06:28N 39°34' E 002°38'0 0.0
2017-Nov-05 05:58N 39°34' E 002°38'0 0.0
2017-Nov-05 05:28N 39°34' E 002°38'0 0.0
2017-Nov-05 04:58N 39°34' E 002°38'0 0.0
2017-Nov-05 04:28N 39°34' E 002°38'0 0.0
2017-Nov-05 03:58N 39°34' E 002°38'0 0.0
2017-Nov-05 03:28N 39°34' E 002°38'0 0.0
2017-Nov-05 02:58N 39°34' E 002°38'0 0.0
2017-Nov-05 02:28N 39°34' E 002°38'0 0.0
2017-Nov-05 01:58N 39°34' E 002°38'0 0.0
2017-Nov-05 01:28N 39°34' E 002°38'0 0.0
2017-Nov-05 00:58N 39°34' E 002°38'0 0.0
2017-Nov-05 00:28N 39°34' E 002°38'0 0.0
2017-Nov-04 23:58N 39°34' E 002°38'0 0.0
2017-Nov-04 23:25N 39°34' E 002°38'0 0.0
2017-Nov-04 22:58N 39°34' E 002°38'0 0.0
2017-Nov-04 22:28N 39°34' E 002°38'0 0.0
2017-Nov-04 21:58N 39°34' E 002°38'0 0.0
2017-Nov-04 21:28N 39°34' E 002°38'0 0.0
2017-Nov-04 20:58N 39°34' E 002°38'0 0.0
2017-Nov-04 20:25N 39°34' E 002°38'0 0.0
2017-Nov-04 19:58N 39°34' E 002°38'0 0.0
2017-Nov-04 19:28N 39°34' E 002°38'0 0.0
2017-Nov-04 18:58N 39°34' E 002°38'0 0.0
2017-Nov-04 18:28N 39°34' E 002°38'0 0.0
2017-Nov-04 17:58N 39°34' E 002°38'0 0.0
2017-Nov-04 17:28N 39°34' E 002°38'0 0.0
2017-Nov-04 16:58N 39°34' E 002°38'0 0.3
2017-Nov-04 16:30N 39°34' E 002°38'3 5.9
2017-Nov-04 16:00N 39°31' E 002°36'5 9.3
2017-Nov-04 15:30N 39°28' E 002°32'  
2017-Nov-01 02:00N 39°34' E 002°38'0 0.0
2017-Nov-01 01:30N 39°34' E 002°38'0 0.0
2017-Nov-01 01:00N 39°34' E 002°38'0 0.0
2017-Nov-01 00:30N 39°34' E 002°38'0 0.0
2017-Nov-01 00:00N 39°34' E 002°38'0 0.0
2017-Oct-31 23:30N 39°34' E 002°38'0 0.0
2017-Oct-31 23:00N 39°34' E 002°38'0 0.0
2017-Oct-31 22:30N 39°34' E 002°38'0 0.0
2017-Oct-31 22:00N 39°34' E 002°38'0 0.0
2017-Oct-31 21:30N 39°34' E 002°38'0 0.0
2017-Oct-31 21:00N 39°34' E 002°38'0 0.0
2017-Oct-31 20:30N 39°34' E 002°38'0 0.0
2017-Oct-31 20:00N 39°34' E 002°38'0 0.0
2017-Oct-31 19:30N 39°34' E 002°38'0 0.0
2017-Oct-31 19:00N 39°34' E 002°38'0 0.0
2017-Oct-31 18:30N 39°34' E 002°38'0 0.0
2017-Oct-31 18:00N 39°34' E 002°38'0 0.0
2017-Oct-31 17:30N 39°34' E 002°38'0 0.0
2017-Oct-31 17:00N 39°34' E 002°38'0 0.0
2017-Oct-31 16:30N 39°34' E 002°38'1 2.2
2017-Oct-31 16:00N 39°33' E 002°38'3 5.5
2017-Oct-31 15:29N 39°32' E 002°35'0 0.0
2017-Oct-31 14:59N 39°32' E 002°35'0 0.0
2017-Oct-31 14:29N 39°32' E 002°35'0 0.0
2017-Oct-31 13:59N 39°32' E 002°35'0 0.0
2017-Oct-31 13:29N 39°32' E 002°35'0 0.0
2017-Oct-31 12:59N 39°32' E 002°35'0 0.0
2017-Oct-31 12:29N 39°32' E 002°35'0 0.0
2017-Oct-31 11:59N 39°32' E 002°35'0 0.0
2017-Oct-31 11:29N 39°32' E 002°35'1 0.5
2017-Oct-31 09:24N 39°32' E 002°34'0 0.0
2017-Oct-31 09:00N 39°32' E 002°34'0 0.0
2017-Oct-31 08:18N 39°32' E 002°34'0 0.0
2017-Oct-31 07:48N 39°32' E 002°34'0 0.0
2017-Oct-31 07:18N 39°32' E 002°34'0 0.0
2017-Oct-31 06:39N 39°32' E 002°34'0 0.0
2017-Oct-31 06:27N 39°32' E 002°34'0 0.0
2017-Oct-31 05:39N 39°32' E 002°34'0 0.0
2017-Oct-31 05:30N 39°32' E 002°34'0 0.0
2017-Oct-31 05:00N 39°32' E 002°34'0 0.0
2017-Oct-31 04:24N 39°32' E 002°34'0 0.0
2017-Oct-31 04:00N 39°32' E 002°34'0 0.0
2017-Oct-31 03:30N 39°32' E 002°34'0 0.0
2017-Oct-31 03:00N 39°32' E 002°34'0 0.0
2017-Oct-31 01:54N 39°32' E 002°34'0 0.0
2017-Oct-31 01:30N 39°32' E 002°34'0 0.0
2017-Oct-31 00:57N 39°32' E 002°34'0 0.0
2017-Oct-30 23:33N 39°32' E 002°34'0 0.0
2017-Oct-30 23:15N 39°32' E 002°34'0 0.0
2017-Oct-30 22:54N 39°32' E 002°34'0 0.0
2017-Oct-30 21:15N 39°32' E 002°34'0 0.0
2017-Oct-30 18:57N 39°32' E 002°34'0 0.0
2017-Oct-30 18:15N 39°32' E 002°34'0 0.0
2017-Oct-30 17:48N 39°32' E 002°34'0 0.0
2017-Oct-30 13:07N 39°32' E 002°34'1 6.7
2017-Oct-30 13:00N 39°31' E 002°33'2 4.4
2017-Oct-30 12:30N 39°29' E 002°32'0 0.0
2017-Oct-30 12:00N 39°29' E 002°32'0 0.0
2017-Oct-30 11:30N 39°29' E 002°32'0 0.4
2017-Oct-30 11:00N 39°29' E 002°32'4 8.0
2017-Oct-30 10:30N 39°32' E 002°36'2 4.5
2017-Oct-30 09:58N 39°34' E 002°38'0 0.0
2017-Oct-30 09:28N 39°34' E 002°38'0 0.0
2017-Oct-30 08:58N 39°34' E 002°38'0 0.0
2017-Oct-30 08:28N 39°34' E 002°38'0 0.0
2017-Oct-30 07:52N 39°34' E 002°38'  
Track history (hours):
 
Tides and Currents Weather Stations Pressure Air Temp Water Temp Dewpoint Dewpoint Depression Visibility Wind Speed Wind Dir Waves Ship Positions

Cinquanta 50

Last reported at 2017-Nov-07 17:30 UTC. Time now 2017-Nov-18 04:52 UTC.
Position N 39°28' E 002°32'.
Warning: this ship's position is 10 days out of date.

Length 36 m.

Type: Pleasure craft. MMSI: 249798000.

Date/timePositionNaut miles runAvg speedWind from/ knotsBaromVisibWave heightAir tempDewpointWater temp
2017-Nov-07 17:30N 39°28' E 002°32'1 1.1
2017-Nov-07 16:59N 39°28' E 002°31'0 0.0
2017-Nov-07 16:17N 39°28' E 002°31'0 0.0
2017-Nov-07 15:11N 39°28' E 002°31'0 0.0
2017-Nov-07 14:53N 39°28' E 002°31'0 0.0
2017-Nov-07 14:29N 39°28' E 002°31'0 0.0
2017-Nov-07 13:59N 39°28' E 002°31'1 1.4
2017-Nov-07 13:30N 39°29' E 002°32'3 7.1
2017-Nov-07 13:00N 39°31' E 002°36'3 6.2
2017-Nov-07 12:29N 39°33' E 002°38'1 1.0
2017-Nov-07 11:58N 39°34' E 002°38'0 0.0
2017-Nov-07 11:30N 39°34' E 002°38'0 0.4
2017-Nov-07 11:00N 39°34' E 002°38'0 0.0
2017-Nov-05 07:28N 39°34' E 002°38'0 0.0
2017-Nov-05 06:58N 39°34' E 002°38'0 0.0
2017-Nov-05 06:28N 39°34' E 002°38'0 0.0
2017-Nov-05 05:58N 39°34' E 002°38'0 0.0
2017-Nov-05 05:28N 39°34' E 002°38'0 0.0
2017-Nov-05 04:58N 39°34' E 002°38'0 0.0
2017-Nov-05 04:28N 39°34' E 002°38'0 0.0
2017-Nov-05 03:58N 39°34' E 002°38'0 0.0
2017-Nov-05 03:28N 39°34' E 002°38'0 0.0
2017-Nov-05 02:58N 39°34' E 002°38'0 0.0
2017-Nov-05 02:28N 39°34' E 002°38'0 0.0
2017-Nov-05 01:58N 39°34' E 002°38'0 0.0
2017-Nov-05 01:28N 39°34' E 002°38'0 0.0
2017-Nov-05 00:58N 39°34' E 002°38'0 0.0
2017-Nov-05 00:28N 39°34' E 002°38'0 0.0
2017-Nov-04 23:58N 39°34' E 002°38'0 0.0
2017-Nov-04 23:25N 39°34' E 002°38'0 0.0
2017-Nov-04 22:58N 39°34' E 002°38'0 0.0
2017-Nov-04 22:28N 39°34' E 002°38'0 0.0
2017-Nov-04 21:58N 39°34' E 002°38'0 0.0
2017-Nov-04 21:28N 39°34' E 002°38'0 0.0
2017-Nov-04 20:58N 39°34' E 002°38'0 0.0
2017-Nov-04 20:25N 39°34' E 002°38'0 0.0
2017-Nov-04 19:58N 39°34' E 002°38'0 0.0
2017-Nov-04 19:28N 39°34' E 002°38'0 0.0
2017-Nov-04 18:58N 39°34' E 002°38'0 0.0
2017-Nov-04 18:28N 39°34' E 002°38'0 0.0
2017-Nov-04 17:58N 39°34' E 002°38'0 0.0
2017-Nov-04 17:28N 39°34' E 002°38'0 0.0
2017-Nov-04 16:58N 39°34' E 002°38'0 0.3
2017-Nov-04 16:30N 39°34' E 002°38'3 5.9
2017-Nov-04 16:00N 39°31' E 002°36'5 9.3
2017-Nov-04 15:30N 39°28' E 002°32'  
2017-Nov-01 02:00N 39°34' E 002°38'0 0.0
2017-Nov-01 01:30N 39°34' E 002°38'0 0.0
2017-Nov-01 01:00N 39°34' E 002°38'0 0.0
2017-Nov-01 00:30N 39°34' E 002°38'0 0.0
2017-Nov-01 00:00N 39°34' E 002°38'0 0.0
2017-Oct-31 23:30N 39°34' E 002°38'0 0.0
2017-Oct-31 23:00N 39°34' E 002°38'0 0.0
2017-Oct-31 22:30N 39°34' E 002°38'0 0.0
2017-Oct-31 22:00N 39°34' E 002°38'0 0.0
2017-Oct-31 21:30N 39°34' E 002°38'0 0.0
2017-Oct-31 21:00N 39°34' E 002°38'0 0.0
2017-Oct-31 20:30N 39°34' E 002°38'0 0.0
2017-Oct-31 20:00N 39°34' E 002°38'0 0.0
2017-Oct-31 19:30N 39°34' E 002°38'0 0.0
2017-Oct-31 19:00N 39°34' E 002°38'0 0.0
2017-Oct-31 18:30N 39°34' E 002°38'0 0.0
2017-Oct-31 18:00N 39°34' E 002°38'0 0.0
2017-Oct-31 17:30N 39°34' E 002°38'0 0.0
2017-Oct-31 17:00N 39°34' E 002°38'0 0.0
2017-Oct-31 16:30N 39°34' E 002°38'1 2.2
2017-Oct-31 16:00N 39°33' E 002°38'3 5.5
2017-Oct-31 15:29N 39°32' E 002°35'0 0.0
2017-Oct-31 14:59N 39°32' E 002°35'0 0.0
2017-Oct-31 14:29N 39°32' E 002°35'0 0.0
2017-Oct-31 13:59N 39°32' E 002°35'0 0.0
2017-Oct-31 13:29N 39°32' E 002°35'0 0.0
2017-Oct-31 12:59N 39°32' E 002°35'0 0.0
2017-Oct-31 12:29N 39°32' E 002°35'0 0.0
2017-Oct-31 11:59N 39°32' E 002°35'0 0.0
2017-Oct-31 11:29N 39°32' E 002°35'1 0.5
2017-Oct-31 09:24N 39°32' E 002°34'0 0.0
2017-Oct-31 09:00N 39°32' E 002°34'0 0.0
2017-Oct-31 08:18N 39°32' E 002°34'0 0.0
2017-Oct-31 07:48N 39°32' E 002°34'0 0.0
2017-Oct-31 07:18N 39°32' E 002°34'0 0.0
2017-Oct-31 06:39N 39°32' E 002°34'0 0.0
2017-Oct-31 06:27N 39°32' E 002°34'0 0.0
2017-Oct-31 05:39N 39°32' E 002°34'0 0.0
2017-Oct-31 05:30N 39°32' E 002°34'0 0.0
2017-Oct-31 05:00N 39°32' E 002°34'0 0.0
2017-Oct-31 04:24N 39°32' E 002°34'0 0.0
2017-Oct-31 04:00N 39°32' E 002°34'0 0.0
2017-Oct-31 03:30N 39°32' E 002°34'0 0.0
2017-Oct-31 03:00N 39°32' E 002°34'0 0.0
2017-Oct-31 01:54N 39°32' E 002°34'0 0.0
2017-Oct-31 01:30N 39°32' E 002°34'0 0.0
2017-Oct-31 00:57N 39°32' E 002°34'0 0.0
2017-Oct-30 23:33N 39°32' E 002°34'0 0.0
2017-Oct-30 23:15N 39°32' E 002°34'0 0.0
2017-Oct-30 22:54N 39°32' E 002°34'0 0.0
2017-Oct-30 21:15N 39°32' E 002°34'0 0.0
2017-Oct-30 18:57N 39°32' E 002°34'0 0.0
2017-Oct-30 18:15N 39°32' E 002°34'0 0.0
2017-Oct-30 17:48N 39°32' E 002°34'0 0.0
2017-Oct-30 13:07N 39°32' E 002°34'1 6.7
2017-Oct-30 13:00N 39°31' E 002°33'2 4.4
2017-Oct-30 12:30N 39°29' E 002°32'0 0.0
2017-Oct-30 12:00N 39°29' E 002°32'0 0.0
2017-Oct-30 11:30N 39°29' E 002°32'0 0.4
2017-Oct-30 11:00N 39°29' E 002°32'4 8.0
2017-Oct-30 10:30N 39°32' E 002°36'2 4.5
2017-Oct-30 09:58N 39°34' E 002°38'0 0.0
2017-Oct-30 09:28N 39°34' E 002°38'0 0.0
2017-Oct-30 08:58N 39°34' E 002°38'0 0.0
2017-Oct-30 08:28N 39°34' E 002°38'0 0.0
2017-Oct-30 07:52N 39°34' E 002°38'  

Dump ship's entire track history